sensor_id;sensor_type;location;lat;lon;timestamp;temperature;humidity
22678;DHT22;26259;50.214;18.620;2023-04-21T00:01:02;4.30;99.90
22678;DHT22;26259;50.214;18.620;2023-04-21T00:03:32;4.30;99.90
22678;DHT22;26259;50.214;18.620;2023-04-21T00:05:58;4.20;99.90
22678;DHT22;26259;50.214;18.620;2023-04-21T00:08:24;4.20;99.90
22678;DHT22;26259;50.214;18.620;2023-04-21T00:10:51;4.20;99.90
22678;DHT22;26259;50.214;18.620;2023-04-21T00:13:16;4.10;99.90
22678;DHT22;26259;50.214;18.620;2023-04-21T00:15:42;4.10;99.90
22678;DHT22;26259;50.214;18.620;2023-04-21T00:18:07;4.10;99.90
22678;DHT22;26259;50.214;18.620;2023-04-21T00:20:34;4.10;99.90
22678;DHT22;26259;50.214;18.620;2023-04-21T00:22:59;4.10;99.90
22678;DHT22;26259;50.214;18.620;2023-04-21T00:25:25;4.10;99.90
22678;DHT22;26259;50.214;18.620;2023-04-21T00:27:51;4.00;99.90
22678;DHT22;26259;50.214;18.620;2023-04-21T00:30:17;3.90;99.90
22678;DHT22;26259;50.214;18.620;2023-04-21T00:32:42;3.90;99.90
22678;DHT22;26259;50.214;18.620;2023-04-21T00:35:08;3.80;99.90
22678;DHT22;26259;50.214;18.620;2023-04-21T00:37:34;3.80;99.90
22678;DHT22;26259;50.214;18.620;2023-04-21T00:40:00;3.80;99.90
22678;DHT22;26259;50.214;18.620;2023-04-21T00:42:26;3.90;99.90
22678;DHT22;26259;50.214;18.620;2023-04-21T00:44:51;3.80;99.90
22678;DHT22;26259;50.214;18.620;2023-04-21T00:47:17;3.80;99.90
22678;DHT22;26259;50.214;18.620;2023-04-21T00:49:44;3.80;99.90
22678;DHT22;26259;50.214;18.620;2023-04-21T00:52:10;3.80;99.90
22678;DHT22;26259;50.214;18.620;2023-04-21T00:54:36;3.80;99.90
22678;DHT22;26259;50.214;18.620;2023-04-21T00:57:02;3.70;99.90
22678;DHT22;26259;50.214;18.620;2023-04-21T00:59:29;3.70;99.90
22678;DHT22;26259;50.214;18.620;2023-04-21T01:01:54;3.60;99.90
22678;DHT22;26259;50.214;18.620;2023-04-21T01:04:20;3.50;99.90
22678;DHT22;26259;50.214;18.620;2023-04-21T01:06:46;3.50;99.90
22678;DHT22;26259;50.214;18.620;2023-04-21T01:09:11;3.40;99.90
22678;DHT22;26259;50.214;18.620;2023-04-21T01:11:37;3.40;99.90
22678;DHT22;26259;50.214;18.620;2023-04-21T01:14:04;3.50;99.90
22678;DHT22;26259;50.214;18.620;2023-04-21T01:16:30;3.60;99.90
22678;DHT22;26259;50.214;18.620;2023-04-21T01:19:02;3.60;99.90
22678;DHT22;26259;50.214;18.620;2023-04-21T01:21:38;3.50;99.90
22678;DHT22;26259;50.214;18.620;2023-04-21T01:24:05;3.40;99.90
22678;DHT22;26259;50.214;18.620;2023-04-21T01:26:30;3.40;99.90
22678;DHT22;26259;50.214;18.620;2023-04-21T01:28:56;3.40;99.90
22678;DHT22;26259;50.214;18.620;2023-04-21T01:31:21;3.40;99.90
22678;DHT22;26259;50.214;18.620;2023-04-21T01:33:48;3.40;99.90
22678;DHT22;26259;50.214;18.620;2023-04-21T01:36:14;3.40;99.90
22678;DHT22;26259;50.214;18.620;2023-04-21T01:38:41;3.40;99.90
22678;DHT22;26259;50.214;18.620;2023-04-21T01:41:07;3.30;99.90
22678;DHT22;26259;50.214;18.620;2023-04-21T01:43:34;3.20;99.90
22678;DHT22;26259;50.214;18.620;2023-04-21T01:46:00;3.10;99.90
22678;DHT22;26259;50.214;18.620;2023-04-21T01:48:26;3.10;99.90
22678;DHT22;26259;50.214;18.620;2023-04-21T01:50:51;3.10;99.90
22678;DHT22;26259;50.214;18.620;2023-04-21T01:53:17;3.10;99.90
22678;DHT22;26259;50.214;18.620;2023-04-21T01:55:42;3.00;99.90
22678;DHT22;26259;50.214;18.620;2023-04-21T01:58:08;3.00;99.90
22678;DHT22;26259;50.214;18.620;2023-04-21T02:00:33;3.00;99.90
22678;DHT22;26259;50.214;18.620;2023-04-21T02:02:59;3.00;99.90
22678;DHT22;26259;50.214;18.620;2023-04-21T02:05:25;2.90;99.90
22678;DHT22;26259;50.214;18.620;2023-04-21T02:07:50;3.00;99.90
22678;DHT22;26259;50.214;18.620;2023-04-21T02:10:16;3.00;99.90
22678;DHT22;26259;50.214;18.620;2023-04-21T02:12:41;2.90;99.90
22678;DHT22;26259;50.214;18.620;2023-04-21T02:15:07;2.90;99.90
22678;DHT22;26259;50.214;18.620;2023-04-21T02:17:33;2.80;99.90
22678;DHT22;26259;50.214;18.620;2023-04-21T02:19:58;2.80;99.90
22678;DHT22;26259;50.214;18.620;2023-04-21T02:22:24;2.80;99.90
22678;DHT22;26259;50.214;18.620;2023-04-21T02:24:50;2.90;99.90
22678;DHT22;26259;50.214;18.620;2023-04-21T02:27:15;2.90;99.90
22678;DHT22;26259;50.214;18.620;2023-04-21T02:29:41;2.80;99.90
22678;DHT22;26259;50.214;18.620;2023-04-21T02:32:07;2.90;99.90
22678;DHT22;26259;50.214;18.620;2023-04-21T02:34:32;2.90;99.90
22678;DHT22;26259;50.214;18.620;2023-04-21T02:36:58;2.90;99.90
22678;DHT22;26259;50.214;18.620;2023-04-21T02:39:24;2.80;99.90
22678;DHT22;26259;50.214;18.620;2023-04-21T02:41:50;2.80;99.90
22678;DHT22;26259;50.214;18.620;2023-04-21T02:44:15;2.70;99.90
22678;DHT22;26259;50.214;18.620;2023-04-21T02:46:41;2.70;99.90
22678;DHT22;26259;50.214;18.620;2023-04-21T02:49:07;2.60;99.90
22678;DHT22;26259;50.214;18.620;2023-04-21T02:51:33;2.70;99.90
22678;DHT22;26259;50.214;18.620;2023-04-21T02:53:58;2.70;99.90
22678;DHT22;26259;50.214;18.620;2023-04-21T02:56:25;2.60;99.90
22678;DHT22;26259;50.214;18.620;2023-04-21T02:58:50;2.60;99.90
22678;DHT22;26259;50.214;18.620;2023-04-21T03:01:16;2.60;99.90
22678;DHT22;26259;50.214;18.620;2023-04-21T03:03:41;2.60;99.90
22678;DHT22;26259;50.214;18.620;2023-04-21T03:06:07;2.50;99.90
22678;DHT22;26259;50.214;18.620;2023-04-21T03:08:32;2.50;99.90
22678;DHT22;26259;50.214;18.620;2023-04-21T03:10:58;2.50;99.90
22678;DHT22;26259;50.214;18.620;2023-04-21T03:13:24;2.50;99.90
22678;DHT22;26259;50.214;18.620;2023-04-21T03:15:49;2.50;99.90
22678;DHT22;26259;50.214;18.620;2023-04-21T03:18:15;2.50;99.90
22678;DHT22;26259;50.214;18.620;2023-04-21T03:20:41;2.50;99.90
22678;DHT22;26259;50.214;18.620;2023-04-21T03:23:07;2.50;99.90
22678;DHT22;26259;50.214;18.620;2023-04-21T03:25:32;2.40;99.90
22678;DHT22;26259;50.214;18.620;2023-04-21T03:27:58;2.40;99.90
22678;DHT22;26259;50.214;18.620;2023-04-21T03:30:24;2.40;99.90
22678;DHT22;26259;50.214;18.620;2023-04-21T03:32:52;2.40;99.90
22678;DHT22;26259;50.214;18.620;2023-04-21T03:35:19;2.40;99.90
22678;DHT22;26259;50.214;18.620;2023-04-21T03:37:45;2.40;99.90
22678;DHT22;26259;50.214;18.620;2023-04-21T03:40:11;2.50;99.90
22678;DHT22;26259;50.214;18.620;2023-04-21T03:42:36;2.40;99.90
22678;DHT22;26259;50.214;18.620;2023-04-21T03:45:04;2.40;99.90
22678;DHT22;26259;50.214;18.620;2023-04-21T03:47:30;2.30;99.90
22678;DHT22;26259;50.214;18.620;2023-04-21T03:49:55;2.30;99.90
22678;DHT22;26259;50.214;18.620;2023-04-21T03:52:21;2.30;99.90
22678;DHT22;26259;50.214;18.620;2023-04-21T03:54:47;2.40;99.90
22678;DHT22;26259;50.214;18.620;2023-04-21T03:57:13;2.40;99.90
22678;DHT22;26259;50.214;18.620;2023-04-21T03:59:39;2.40;99.90
22678;DHT22;26259;50.214;18.620;2023-04-21T04:02:05;2.40;99.90
22678;DHT22;26259;50.214;18.620;2023-04-21T04:04:30;2.40;99.90
22678;DHT22;26259;50.214;18.620;2023-04-21T04:06:56;2.50;99.90
22678;DHT22;26259;50.214;18.620;2023-04-21T04:09:22;2.50;99.90
22678;DHT22;26259;50.214;18.620;2023-04-21T04:11:48;2.60;99.90
22678;DHT22;26259;50.214;18.620;2023-04-21T04:14:13;2.60;99.90
22678;DHT22;26259;50.214;18.620;2023-04-21T04:16:39;2.60;99.90
22678;DHT22;26259;50.214;18.620;2023-04-21T04:19:06;2.70;99.90
22678;DHT22;26259;50.214;18.620;2023-04-21T04:21:32;2.70;99.90
22678;DHT22;26259;50.214;18.620;2023-04-21T04:23:58;2.80;99.90
22678;DHT22;26259;50.214;18.620;2023-04-21T04:26:24;2.80;99.90
22678;DHT22;26259;50.214;18.620;2023-04-21T04:28:53;2.90;99.90
22678;DHT22;26259;50.214;18.620;2023-04-21T04:31:23;3.10;99.90
22678;DHT22;26259;50.214;18.620;2023-04-21T04:33:50;3.10;99.90
22678;DHT22;26259;50.214;18.620;2023-04-21T04:36:15;3.30;99.90
22678;DHT22;26259;50.214;18.620;2023-04-21T04:38:41;3.40;99.90
22678;DHT22;26259;50.214;18.620;2023-04-21T04:41:06;3.60;99.90
22678;DHT22;26259;50.214;18.620;2023-04-21T04:43:33;3.80;99.90
22678;DHT22;26259;50.214;18.620;2023-04-21T04:46:01;3.90;99.90
22678;DHT22;26259;50.214;18.620;2023-04-21T04:48:27;4.00;99.90
22678;DHT22;26259;50.214;18.620;2023-04-21T04:50:53;4.10;99.90
22678;DHT22;26259;50.214;18.620;2023-04-21T04:53:18;4.30;99.90
22678;DHT22;26259;50.214;18.620;2023-04-21T04:55:44;4.40;99.90
22678;DHT22;26259;50.214;18.620;2023-04-21T04:58:11;4.60;99.90
22678;DHT22;26259;50.214;18.620;2023-04-21T05:00:37;4.70;99.90
22678;DHT22;26259;50.214;18.620;2023-04-21T05:03:03;4.80;99.90
22678;DHT22;26259;50.214;18.620;2023-04-21T05:05:28;4.90;99.90
22678;DHT22;26259;50.214;18.620;2023-04-21T05:07:54;5.10;99.90
22678;DHT22;26259;50.214;18.620;2023-04-21T05:10:20;5.20;99.90
22678;DHT22;26259;50.214;18.620;2023-04-21T05:12:45;5.30;99.90
22678;DHT22;26259;50.214;18.620;2023-04-21T05:15:11;5.50;99.90
22678;DHT22;26259;50.214;18.620;2023-04-21T05:17:36;5.60;99.90
22678;DHT22;26259;50.214;18.620;2023-04-21T05:20:06;5.80;99.90
22678;DHT22;26259;50.214;18.620;2023-04-21T05:22:36;5.90;99.90
22678;DHT22;26259;50.214;18.620;2023-04-21T05:25:02;6.10;99.90
22678;DHT22;26259;50.214;18.620;2023-04-21T05:27:27;6.20;99.90
22678;DHT22;26259;50.214;18.620;2023-04-21T05:29:53;6.40;99.90
22678;DHT22;26259;50.214;18.620;2023-04-21T05:32:19;6.60;99.90
22678;DHT22;26259;50.214;18.620;2023-04-21T05:34:45;6.70;99.90
22678;DHT22;26259;50.214;18.620;2023-04-21T05:37:10;6.90;99.90
22678;DHT22;26259;50.214;18.620;2023-04-21T05:39:39;7.00;99.90
22678;DHT22;26259;50.214;18.620;2023-04-21T05:42:04;7.10;99.90
22678;DHT22;26259;50.214;18.620;2023-04-21T05:44:31;7.30;99.90
22678;DHT22;26259;50.214;18.620;2023-04-21T05:46:56;7.40;99.90
22678;DHT22;26259;50.214;18.620;2023-04-21T05:49:22;7.60;99.90
22678;DHT22;26259;50.214;18.620;2023-04-21T05:51:47;7.80;99.90
22678;DHT22;26259;50.214;18.620;2023-04-21T05:54:13;7.90;99.90
22678;DHT22;26259;50.214;18.620;2023-04-21T05:56:38;8.00;99.90
22678;DHT22;26259;50.214;18.620;2023-04-21T05:59:04;8.20;99.90
22678;DHT22;26259;50.214;18.620;2023-04-21T06:01:31;8.30;99.90
22678;DHT22;26259;50.214;18.620;2023-04-21T06:03:57;8.50;99.90
22678;DHT22;26259;50.214;18.620;2023-04-21T06:06:25;8.60;99.90
22678;DHT22;26259;50.214;18.620;2023-04-21T06:08:51;8.70;99.90
22678;DHT22;26259;50.214;18.620;2023-04-21T06:11:17;8.80;99.90
22678;DHT22;26259;50.214;18.620;2023-04-21T06:13:42;8.90;99.90
22678;DHT22;26259;50.214;18.620;2023-04-21T06:16:08;9.00;99.90
22678;DHT22;26259;50.214;18.620;2023-04-21T06:18:33;9.10;99.90
22678;DHT22;26259;50.214;18.620;2023-04-21T06:20:59;9.30;99.90
22678;DHT22;26259;50.214;18.620;2023-04-21T06:23:24;9.50;99.90
22678;DHT22;26259;50.214;18.620;2023-04-21T06:26:01;9.60;99.90
22678;DHT22;26259;50.214;18.620;2023-04-21T06:28:30;9.80;99.90
22678;DHT22;26259;50.214;18.620;2023-04-21T06:30:56;9.80;99.90
22678;DHT22;26259;50.214;18.620;2023-04-21T06:33:21;10.00;99.90
22678;DHT22;26259;50.214;18.620;2023-04-21T06:35:47;10.10;99.90
22678;DHT22;26259;50.214;18.620;2023-04-21T06:38:12;10.20;99.90
22678;DHT22;26259;50.214;18.620;2023-04-21T06:40:39;10.40;99.90
22678;DHT22;26259;50.214;18.620;2023-04-21T06:43:04;10.60;99.90
22678;DHT22;26259;50.214;18.620;2023-04-21T06:45:30;10.70;99.90
22678;DHT22;26259;50.214;18.620;2023-04-21T06:47:56;10.90;99.90
22678;DHT22;26259;50.214;18.620;2023-04-21T06:50:21;11.10;99.90
22678;DHT22;26259;50.214;18.620;2023-04-21T06:52:47;11.20;99.90
22678;DHT22;26259;50.214;18.620;2023-04-21T06:55:13;11.40;99.90
22678;DHT22;26259;50.214;18.620;2023-04-21T06:57:38;11.50;99.90
22678;DHT22;26259;50.214;18.620;2023-04-21T07:00:04;11.70;99.90
22678;DHT22;26259;50.214;18.620;2023-04-21T07:02:30;11.80;99.90
22678;DHT22;26259;50.214;18.620;2023-04-21T07:04:56;11.90;99.90
22678;DHT22;26259;50.214;18.620;2023-04-21T07:07:21;12.10;99.90
22678;DHT22;26259;50.214;18.620;2023-04-21T07:09:47;12.20;99.90
22678;DHT22;26259;50.214;18.620;2023-04-21T07:12:13;12.30;99.90
22678;DHT22;26259;50.214;18.620;2023-04-21T07:14:38;12.40;99.90
22678;DHT22;26259;50.214;18.620;2023-04-21T07:17:04;12.50;99.90
22678;DHT22;26259;50.214;18.620;2023-04-21T07:19:30;12.70;99.90
22678;DHT22;26259;50.214;18.620;2023-04-21T07:21:55;12.80;99.90
22678;DHT22;26259;50.214;18.620;2023-04-21T07:24:22;12.90;99.90
22678;DHT22;26259;50.214;18.620;2023-04-21T07:26:48;13.00;99.90
22678;DHT22;26259;50.214;18.620;2023-04-21T07:29:13;13.30;99.90
22678;DHT22;26259;50.214;18.620;2023-04-21T07:31:39;13.40;99.90
22678;DHT22;26259;50.214;18.620;2023-04-21T07:34:04;13.50;99.90
22678;DHT22;26259;50.214;18.620;2023-04-21T07:36:30;13.60;99.90
22678;DHT22;26259;50.214;18.620;2023-04-21T07:38:56;13.80;99.90
22678;DHT22;26259;50.214;18.620;2023-04-21T07:41:21;13.80;99.90
22678;DHT22;26259;50.214;18.620;2023-04-21T07:43:47;14.00;99.90
22678;DHT22;26259;50.214;18.620;2023-04-21T07:46:12;14.00;99.90
22678;DHT22;26259;50.214;18.620;2023-04-21T07:48:39;14.20;99.90
22678;DHT22;26259;50.214;18.620;2023-04-21T07:51:05;14.30;99.90
22678;DHT22;26259;50.214;18.620;2023-04-21T07:53:31;14.40;99.90
22678;DHT22;26259;50.214;18.620;2023-04-21T07:55:57;14.50;99.90
22678;DHT22;26259;50.214;18.620;2023-04-21T07:58:22;14.70;99.90
22678;DHT22;26259;50.214;18.620;2023-04-21T08:00:48;14.90;99.90
22678;DHT22;26259;50.214;18.620;2023-04-21T08:03:14;15.00;99.90
22678;DHT22;26259;50.214;18.620;2023-04-21T08:05:39;15.20;99.90
22678;DHT22;26259;50.214;18.620;2023-04-21T08:08:05;15.40;99.90
22678;DHT22;26259;50.214;18.620;2023-04-21T08:10:32;15.60;99.90
22678;DHT22;26259;50.214;18.620;2023-04-21T08:12:57;15.70;99.90
22678;DHT22;26259;50.214;18.620;2023-04-21T08:15:23;15.90;99.90
22678;DHT22;26259;50.214;18.620;2023-04-21T08:17:49;15.90;99.90
22678;DHT22;26259;50.214;18.620;2023-04-21T08:20:14;16.10;99.90
22678;DHT22;26259;50.214;18.620;2023-04-21T08:22:40;16.20;99.10
22678;DHT22;26259;50.214;18.620;2023-04-21T08:25:06;16.40;99.10
22678;DHT22;26259;50.214;18.620;2023-04-21T08:27:32;16.50;95.60
22678;DHT22;26259;50.214;18.620;2023-04-21T08:29:57;16.60;94.00
22678;DHT22;26259;50.214;18.620;2023-04-21T08:32:24;16.60;99.90
22678;DHT22;26259;50.214;18.620;2023-04-21T08:34:51;16.60;84.20
22678;DHT22;26259;50.214;18.620;2023-04-21T08:37:17;16.60;85.30
22678;DHT22;26259;50.214;18.620;2023-04-21T08:39:44;16.60;90.70
22678;DHT22;26259;50.214;18.620;2023-04-21T08:42:13;16.60;83.10
22678;DHT22;26259;50.214;18.620;2023-04-21T08:44:42;16.70;75.50
22678;DHT22;26259;50.214;18.620;2023-04-21T08:47:12;16.70;72.90
22678;DHT22;26259;50.214;18.620;2023-04-21T08:49:39;16.80;82.50
22678;DHT22;26259;50.214;18.620;2023-04-21T08:52:08;16.90;82.80
22678;DHT22;26259;50.214;18.620;2023-04-21T08:54:36;17.10;66.80
22678;DHT22;26259;50.214;18.620;2023-04-21T08:57:01;17.20;69.10
22678;DHT22;26259;50.214;18.620;2023-04-21T08:59:30;17.40;54.00
22678;DHT22;26259;50.214;18.620;2023-04-21T09:04:40;17.80;46.80
22678;DHT22;26259;50.214;18.620;2023-04-21T09:07:06;17.90;44.30
22678;DHT22;26259;50.214;18.620;2023-04-21T09:09:36;18.10;46.30
22678;DHT22;26259;50.214;18.620;2023-04-21T09:12:15;18.30;39.40
22678;DHT22;26259;50.214;18.620;2023-04-21T09:14:42;18.60;40.80
22678;DHT22;26259;50.214;18.620;2023-04-21T09:17:07;18.80;38.60
22678;DHT22;26259;50.214;18.620;2023-04-21T09:19:33;19.00;30.90
22678;DHT22;26259;50.214;18.620;2023-04-21T09:22:00;19.30;31.90
22678;DHT22;26259;50.214;18.620;2023-04-21T09:24:26;19.40;27.20
22678;DHT22;26259;50.214;18.620;2023-04-21T09:26:52;19.30;28.30
22678;DHT22;26259;50.214;18.620;2023-04-21T09:29:24;19.20;29.00
22678;DHT22;26259;50.214;18.620;2023-04-21T09:31:50;18.80;30.40
22678;DHT22;26259;50.214;18.620;2023-04-21T09:34:23;18.70;32.00
22678;DHT22;26259;50.214;18.620;2023-04-21T09:36:58;18.80;27.00
22678;DHT22;26259;50.214;18.620;2023-04-21T09:39:25;18.90;22.10
22678;DHT22;26259;50.214;18.620;2023-04-21T09:41:50;19.00;23.70
22678;DHT22;26259;50.214;18.620;2023-04-21T09:44:16;19.20;24.30
22678;DHT22;26259;50.214;18.620;2023-04-21T09:46:43;19.30;22.50
22678;DHT22;26259;50.214;18.620;2023-04-21T09:49:10;19.50;20.00
22678;DHT22;26259;50.214;18.620;2023-04-21T09:51:38;19.40;20.10
22678;DHT22;26259;50.214;18.620;2023-04-21T09:54:13;19.60;20.70
22678;DHT22;26259;50.214;18.620;2023-04-21T09:56:42;19.60;21.40
22678;DHT22;26259;50.214;18.620;2023-04-21T09:59:11;19.70;22.40
22678;DHT22;26259;50.214;18.620;2023-04-21T10:01:38;19.80;19.20
22678;DHT22;26259;50.214;18.620;2023-04-21T10:04:04;19.90;20.40
22678;DHT22;26259;50.214;18.620;2023-04-21T10:06:31;19.70;19.20
22678;DHT22;26259;50.214;18.620;2023-04-21T10:08:57;19.80;20.00
22678;DHT22;26259;50.214;18.620;2023-04-21T10:11:23;19.80;23.60
22678;DHT22;26259;50.214;18.620;2023-04-21T10:13:49;20.10;20.40
22678;DHT22;26259;50.214;18.620;2023-04-21T10:16:16;20.10;17.80
22678;DHT22;26259;50.214;18.620;2023-04-21T10:18:43;20.10;18.60
22678;DHT22;26259;50.214;18.620;2023-04-21T10:21:11;20.10;17.90
22678;DHT22;26259;50.214;18.620;2023-04-21T10:23:38;20.10;21.00
22678;DHT22;26259;50.214;18.620;2023-04-21T10:26:11;20.40;21.70
22678;DHT22;26259;50.214;18.620;2023-04-21T10:29:00;20.50;22.40
22678;DHT22;26259;50.214;18.620;2023-04-21T10:31:52;20.60;22.10
22678;DHT22;26259;50.214;18.620;2023-04-21T10:34:19;20.50;21.30
22678;DHT22;26259;50.214;18.620;2023-04-21T10:39:31;19.90;21.10
22678;DHT22;26259;50.214;18.620;2023-04-21T10:47:26;19.50;21.10
22678;DHT22;26259;50.214;18.620;2023-04-21T10:49:52;19.80;20.90
22678;DHT22;26259;50.214;18.620;2023-04-21T10:52:18;20.10;19.10
22678;DHT22;26259;50.214;18.620;2023-04-21T10:57:14;20.20;21.90
22678;DHT22;26259;50.214;18.620;2023-04-21T10:59:41;20.20;18.50
22678;DHT22;26259;50.214;18.620;2023-04-21T11:02:09;20.30;17.90
22678;DHT22;26259;50.214;18.620;2023-04-21T11:04:35;20.10;16.70
22678;DHT22;26259;50.214;18.620;2023-04-21T11:07:09;19.80;18.90
22678;DHT22;26259;50.214;18.620;2023-04-21T11:09:36;19.60;19.20
22678;DHT22;26259;50.214;18.620;2023-04-21T11:12:07;19.40;18.90
22678;DHT22;26259;50.214;18.620;2023-04-21T11:14:34;19.30;19.50
22678;DHT22;26259;50.214;18.620;2023-04-21T11:17:01;19.30;21.00
22678;DHT22;26259;50.214;18.620;2023-04-21T11:19:27;19.60;23.90
22678;DHT22;26259;50.214;18.620;2023-04-21T11:21:53;19.80;21.10
22678;DHT22;26259;50.214;18.620;2023-04-21T11:24:21;19.80;17.60
22678;DHT22;26259;50.214;18.620;2023-04-21T11:26:47;19.50;17.70
22678;DHT22;26259;50.214;18.620;2023-04-21T11:29:12;19.50;19.90
22678;DHT22;26259;50.214;18.620;2023-04-21T11:31:40;19.40;18.10
22678;DHT22;26259;50.214;18.620;2023-04-21T11:34:06;19.20;19.00
22678;DHT22;26259;50.214;18.620;2023-04-21T11:36:42;19.10;21.00
22678;DHT22;26259;50.214;18.620;2023-04-21T11:39:10;19.00;21.20
22678;DHT22;26259;50.214;18.620;2023-04-21T11:41:43;18.80;19.30
22678;DHT22;26259;50.214;18.620;2023-04-21T11:44:10;18.60;20.40
22678;DHT22;26259;50.214;18.620;2023-04-21T11:46:36;18.30;20.50
22678;DHT22;26259;50.214;18.620;2023-04-21T11:49:03;18.20;22.50
22678;DHT22;26259;50.214;18.620;2023-04-21T11:51:42;18.40;21.00
22678;DHT22;26259;50.214;18.620;2023-04-21T11:54:12;18.40;19.60
22678;DHT22;26259;50.214;18.620;2023-04-21T11:56:40;18.40;24.00
22678;DHT22;26259;50.214;18.620;2023-04-21T11:59:11;18.30;22.10
22678;DHT22;26259;50.214;18.620;2023-04-21T12:01:49;18.50;19.90
22678;DHT22;26259;50.214;18.620;2023-04-21T12:04:19;18.70;18.70
22678;DHT22;26259;50.214;18.620;2023-04-21T12:06:47;18.80;18.10
22678;DHT22;26259;50.214;18.620;2023-04-21T12:09:20;19.10;23.70
22678;DHT22;26259;50.214;18.620;2023-04-21T12:11:47;19.40;19.00
22678;DHT22;26259;50.214;18.620;2023-04-21T12:14:14;19.20;16.30
22678;DHT22;26259;50.214;18.620;2023-04-21T12:16:41;19.30;19.40
22678;DHT22;26259;50.214;18.620;2023-04-21T12:19:07;19.50;18.80
22678;DHT22;26259;50.214;18.620;2023-04-21T12:21:32;19.50;14.80
22678;DHT22;26259;50.214;18.620;2023-04-21T12:24:01;19.50;15.90
22678;DHT22;26259;50.214;18.620;2023-04-21T12:26:26;19.40;16.60
22678;DHT22;26259;50.214;18.620;2023-04-21T12:28:53;19.30;14.90
22678;DHT22;26259;50.214;18.620;2023-04-21T12:31:19;19.20;15.20
22678;DHT22;26259;50.214;18.620;2023-04-21T12:33:44;19.10;13.20
22678;DHT22;26259;50.214;18.620;2023-04-21T12:36:10;19.20;15.20
22678;DHT22;26259;50.214;18.620;2023-04-21T12:38:36;19.20;14.20
22678;DHT22;26259;50.214;18.620;2023-04-21T12:41:01;19.30;15.90
22678;DHT22;26259;50.214;18.620;2023-04-21T12:43:27;19.50;15.20
22678;DHT22;26259;50.214;18.620;2023-04-21T12:45:52;19.50;14.90
22678;DHT22;26259;50.214;18.620;2023-04-21T12:48:18;19.50;13.70
22678;DHT22;26259;50.214;18.620;2023-04-21T12:50:45;19.70;14.20
22678;DHT22;26259;50.214;18.620;2023-04-21T12:53:13;19.70;11.80
22678;DHT22;26259;50.214;18.620;2023-04-21T12:55:39;19.80;12.20
22678;DHT22;26259;50.214;18.620;2023-04-21T12:58:05;19.60;13.50
22678;DHT22;26259;50.214;18.620;2023-04-21T13:00:30;19.50;14.10
22678;DHT22;26259;50.214;18.620;2023-04-21T13:02:57;19.50;16.20
22678;DHT22;26259;50.214;18.620;2023-04-21T13:05:23;19.40;14.80
22678;DHT22;26259;50.214;18.620;2023-04-21T13:07:48;19.30;15.50
22678;DHT22;26259;50.214;18.620;2023-04-21T13:10:14;18.90;14.80
22678;DHT22;26259;50.214;18.620;2023-04-21T13:12:40;18.70;15.40
22678;DHT22;26259;50.214;18.620;2023-04-21T13:15:07;18.60;16.50
22678;DHT22;26259;50.214;18.620;2023-04-21T13:17:32;18.60;17.30
22678;DHT22;26259;50.214;18.620;2023-04-21T13:19:58;18.70;19.00
22678;DHT22;26259;50.214;18.620;2023-04-21T13:22:24;18.90;16.00
22678;DHT22;26259;50.214;18.620;2023-04-21T13:24:49;19.00;14.70
22678;DHT22;26259;50.214;18.620;2023-04-21T13:27:15;19.20;15.30
22678;DHT22;26259;50.214;18.620;2023-04-21T13:29:41;19.40;14.30
22678;DHT22;26259;50.214;18.620;2023-04-21T13:32:06;19.50;13.50
22678;DHT22;26259;50.214;18.620;2023-04-21T13:34:32;19.50;12.80
22678;DHT22;26259;50.214;18.620;2023-04-21T13:36:59;19.50;13.50
22678;DHT22;26259;50.214;18.620;2023-04-21T13:39:25;19.40;16.30
22678;DHT22;26259;50.214;18.620;2023-04-21T13:41:51;19.50;16.20
22678;DHT22;26259;50.214;18.620;2023-04-21T13:44:18;19.50;14.00
22678;DHT22;26259;50.214;18.620;2023-04-21T13:46:43;19.50;15.50
22678;DHT22;26259;50.214;18.620;2023-04-21T13:49:09;19.30;15.70
22678;DHT22;26259;50.214;18.620;2023-04-21T13:51:35;19.10;16.40
22678;DHT22;26259;50.214;18.620;2023-04-21T13:54:00;19.00;15.50
22678;DHT22;26259;50.214;18.620;2023-04-21T13:56:26;18.90;16.90
22678;DHT22;26259;50.214;18.620;2023-04-21T13:58:52;18.90;16.20
22678;DHT22;26259;50.214;18.620;2023-04-21T14:01:17;18.80;15.80
22678;DHT22;26259;50.214;18.620;2023-04-21T14:03:43;18.70;15.90
22678;DHT22;26259;50.214;18.620;2023-04-21T14:06:08;18.90;17.90
22678;DHT22;26259;50.214;18.620;2023-04-21T14:08:34;19.00;17.90
22678;DHT22;26259;50.214;18.620;2023-04-21T14:11:00;19.20;17.90
22678;DHT22;26259;50.214;18.620;2023-04-21T14:13:25;19.20;15.50
22678;DHT22;26259;50.214;18.620;2023-04-21T14:15:54;19.10;16.70
22678;DHT22;26259;50.214;18.620;2023-04-21T14:18:20;19.10;16.80
22678;DHT22;26259;50.214;18.620;2023-04-21T14:20:45;19.10;16.30
22678;DHT22;26259;50.214;18.620;2023-04-21T14:23:11;18.90;15.50
22678;DHT22;26259;50.214;18.620;2023-04-21T14:25:37;18.80;16.00
22678;DHT22;26259;50.214;18.620;2023-04-21T14:28:02;18.60;18.20
22678;DHT22;26259;50.214;18.620;2023-04-21T14:30:32;18.70;20.20
22678;DHT22;26259;50.214;18.620;2023-04-21T14:32:57;18.70;16.80
22678;DHT22;26259;50.214;18.620;2023-04-21T14:35:23;18.80;18.60
22678;DHT22;26259;50.214;18.620;2023-04-21T14:37:48;18.90;17.90
22678;DHT22;26259;50.214;18.620;2023-04-21T14:40:14;19.00;16.90
22678;DHT22;26259;50.214;18.620;2023-04-21T14:42:40;19.00;15.00
22678;DHT22;26259;50.214;18.620;2023-04-21T14:45:06;19.00;15.30
22678;DHT22;26259;50.214;18.620;2023-04-21T14:47:32;19.10;14.80
22678;DHT22;26259;50.214;18.620;2023-04-21T14:50:00;19.20;16.70
22678;DHT22;26259;50.214;18.620;2023-04-21T14:52:25;19.30;15.70
22678;DHT22;26259;50.214;18.620;2023-04-21T14:54:51;19.50;15.80
22678;DHT22;26259;50.214;18.620;2023-04-21T14:57:17;19.50;15.60
22678;DHT22;26259;50.214;18.620;2023-04-21T14:59:43;19.50;16.80
22678;DHT22;26259;50.214;18.620;2023-04-21T15:02:10;19.70;17.00
22678;DHT22;26259;50.214;18.620;2023-04-21T15:04:36;19.80;16.20
22678;DHT22;26259;50.214;18.620;2023-04-21T15:07:02;19.60;15.10
22678;DHT22;26259;50.214;18.620;2023-04-21T15:09:28;19.50;15.80
22678;DHT22;26259;50.214;18.620;2023-04-21T15:11:53;19.40;15.50
22678;DHT22;26259;50.214;18.620;2023-04-21T15:14:20;19.20;17.60
22678;DHT22;26259;50.214;18.620;2023-04-21T15:16:45;18.90;16.40
22678;DHT22;26259;50.214;18.620;2023-04-21T15:19:11;18.70;17.70
22678;DHT22;26259;50.214;18.620;2023-04-21T15:21:37;18.50;18.00
22678;DHT22;26259;50.214;18.620;2023-04-21T15:24:03;18.20;17.10
22678;DHT22;26259;50.214;18.620;2023-04-21T15:26:29;18.10;18.40
22678;DHT22;26259;50.214;18.620;2023-04-21T15:28:55;18.00;18.40
22678;DHT22;26259;50.214;18.620;2023-04-21T15:31:21;18.00;18.00